sensor_id;sensor_type;location;lat;lon;timestamp;temperature;humidity
30572;DHT22;17348;50.948;10.696;2023-03-01T00:00:21;-2.70;99.90
30572;DHT22;17348;50.948;10.696;2023-03-01T00:03:23;-2.70;99.90
30572;DHT22;17348;50.948;10.696;2023-03-01T00:06:26;-2.70;99.90
30572;DHT22;17348;50.948;10.696;2023-03-01T00:09:30;-2.80;99.90
30572;DHT22;17348;50.948;10.696;2023-03-01T00:12:32;-2.80;99.90
30572;DHT22;17348;50.948;10.696;2023-03-01T00:15:39;-2.90;99.90
30572;DHT22;17348;50.948;10.696;2023-03-01T00:18:42;-2.90;99.90
30572;DHT22;17348;50.948;10.696;2023-03-01T00:21:44;-2.90;99.90
30572;DHT22;17348;50.948;10.696;2023-03-01T00:24:47;-2.90;99.90
30572;DHT22;17348;50.948;10.696;2023-03-01T00:27:49;-2.90;99.90
30572;DHT22;17348;50.948;10.696;2023-03-01T00:30:53;-3.00;99.90
30572;DHT22;17348;50.948;10.696;2023-03-01T00:33:56;-3.00;99.90
30572;DHT22;17348;50.948;10.696;2023-03-01T00:36:58;-3.00;99.90
30572;DHT22;17348;50.948;10.696;2023-03-01T00:40:07;-3.00;99.90
30572;DHT22;17348;50.948;10.696;2023-03-01T00:43:11;-3.00;99.90
30572;DHT22;17348;50.948;10.696;2023-03-01T00:46:16;-3.10;99.90
30572;DHT22;17348;50.948;10.696;2023-03-01T00:49:18;-3.10;99.90
30572;DHT22;17348;50.948;10.696;2023-03-01T00:52:21;-3.10;99.90
30572;DHT22;17348;50.948;10.696;2023-03-01T00:55:24;-3.10;99.90
30572;DHT22;17348;50.948;10.696;2023-03-01T00:58:26;-3.10;99.90
30572;DHT22;17348;50.948;10.696;2023-03-01T01:01:30;-3.10;99.90
30572;DHT22;17348;50.948;10.696;2023-03-01T01:04:33;-3.10;99.90
30572;DHT22;17348;50.948;10.696;2023-03-01T01:07:35;-3.10;99.90
30572;DHT22;17348;50.948;10.696;2023-03-01T01:10:38;-3.10;99.90
30572;DHT22;17348;50.948;10.696;2023-03-01T01:13:40;-3.10;99.90
30572;DHT22;17348;50.948;10.696;2023-03-01T01:16:44;-3.10;99.90
30572;DHT22;17348;50.948;10.696;2023-03-01T01:19:47;-3.10;99.90
30572;DHT22;17348;50.948;10.696;2023-03-01T01:22:50;-3.10;99.90
30572;DHT22;17348;50.948;10.696;2023-03-01T01:25:53;-3.00;99.90
30572;DHT22;17348;50.948;10.696;2023-03-01T01:28:56;-3.00;99.90
30572;DHT22;17348;50.948;10.696;2023-03-01T01:31:59;-3.00;99.90
30572;DHT22;17348;50.948;10.696;2023-03-01T01:35:02;-3.00;99.90
30572;DHT22;17348;50.948;10.696;2023-03-01T01:38:04;-2.90;99.90
30572;DHT22;17348;50.948;10.696;2023-03-01T01:41:07;-2.90;99.90
30572;DHT22;17348;50.948;10.696;2023-03-01T01:44:15;-2.90;99.90
30572;DHT22;17348;50.948;10.696;2023-03-01T01:47:22;-2.80;99.90
30572;DHT22;17348;50.948;10.696;2023-03-01T01:50:26;-2.80;99.90
30572;DHT22;17348;50.948;10.696;2023-03-01T01:53:34;-2.80;99.90
30572;DHT22;17348;50.948;10.696;2023-03-01T01:56:37;-2.80;99.90
30572;DHT22;17348;50.948;10.696;2023-03-01T01:59:43;-2.70;99.90
30572;DHT22;17348;50.948;10.696;2023-03-01T02:02:51;-2.70;99.90
30572;DHT22;17348;50.948;10.696;2023-03-01T02:05:58;-2.70;99.90
30572;DHT22;17348;50.948;10.696;2023-03-01T02:09:06;-2.70;99.90
30572;DHT22;17348;50.948;10.696;2023-03-01T02:12:09;-2.70;99.90
30572;DHT22;17348;50.948;10.696;2023-03-01T02:15:12;-2.70;99.90
30572;DHT22;17348;50.948;10.696;2023-03-01T02:18:18;-2.70;99.90
30572;DHT22;17348;50.948;10.696;2023-03-01T02:21:32;-2.70;99.90
30572;DHT22;17348;50.948;10.696;2023-03-01T02:24:42;-2.70;99.90
30572;DHT22;17348;50.948;10.696;2023-03-01T02:27:53;-2.70;99.90
30572;DHT22;17348;50.948;10.696;2023-03-01T02:31:02;-2.70;99.90
30572;DHT22;17348;50.948;10.696;2023-03-01T02:34:24;-2.70;99.90
30572;DHT22;17348;50.948;10.696;2023-03-01T02:37:27;-2.70;99.90
30572;DHT22;17348;50.948;10.696;2023-03-01T02:40:31;-2.70;99.90
30572;DHT22;17348;50.948;10.696;2023-03-01T02:43:33;-2.70;99.90
30572;DHT22;17348;50.948;10.696;2023-03-01T02:46:44;-2.70;99.90
30572;DHT22;17348;50.948;10.696;2023-03-01T02:49:46;-2.70;99.90
30572;DHT22;17348;50.948;10.696;2023-03-01T02:52:55;-2.70;99.90
30572;DHT22;17348;50.948;10.696;2023-03-01T02:56:00;-2.70;99.90
30572;DHT22;17348;50.948;10.696;2023-03-01T02:59:03;-2.70;99.90
30572;DHT22;17348;50.948;10.696;2023-03-01T03:02:07;-2.60;99.90
30572;DHT22;17348;50.948;10.696;2023-03-01T03:05:13;-2.70;99.90
30572;DHT22;17348;50.948;10.696;2023-03-01T03:08:16;-2.70;99.90
30572;DHT22;17348;50.948;10.696;2023-03-01T03:11:24;-2.70;99.90
30572;DHT22;17348;50.948;10.696;2023-03-01T03:14:27;-2.80;99.90
30572;DHT22;17348;50.948;10.696;2023-03-01T03:17:30;-2.80;99.90
30572;DHT22;17348;50.948;10.696;2023-03-01T03:20:33;-2.80;99.90
30572;DHT22;17348;50.948;10.696;2023-03-01T03:23:35;-2.80;99.90
30572;DHT22;17348;50.948;10.696;2023-03-01T03:26:38;-2.80;99.90
30572;DHT22;17348;50.948;10.696;2023-03-01T03:29:40;-2.80;99.90
30572;DHT22;17348;50.948;10.696;2023-03-01T03:32:45;-2.80;99.90
30572;DHT22;17348;50.948;10.696;2023-03-01T03:35:53;-2.90;99.90
30572;DHT22;17348;50.948;10.696;2023-03-01T03:38:55;-2.90;99.90
30572;DHT22;17348;50.948;10.696;2023-03-01T03:41:57;-2.90;99.90
30572;DHT22;17348;50.948;10.696;2023-03-01T03:44:59;-3.00;99.90
30572;DHT22;17348;50.948;10.696;2023-03-01T03:48:05;-3.10;99.90
30572;DHT22;17348;50.948;10.696;2023-03-01T03:51:10;-3.10;99.90
30572;DHT22;17348;50.948;10.696;2023-03-01T03:54:12;-3.20;99.90
30572;DHT22;17348;50.948;10.696;2023-03-01T03:57:15;-3.20;99.90
30572;DHT22;17348;50.948;10.696;2023-03-01T04:00:18;-3.20;99.90
30572;DHT22;17348;50.948;10.696;2023-03-01T04:03:23;-3.30;99.90
30572;DHT22;17348;50.948;10.696;2023-03-01T04:06:26;-3.40;99.90
30572;DHT22;17348;50.948;10.696;2023-03-01T04:09:28;-3.40;99.90
30572;DHT22;17348;50.948;10.696;2023-03-01T04:12:31;-3.40;99.90
30572;DHT22;17348;50.948;10.696;2023-03-01T04:15:35;-3.50;99.90
30572;DHT22;17348;50.948;10.696;2023-03-01T04:18:39;-3.50;99.90
30572;DHT22;17348;50.948;10.696;2023-03-01T04:21:41;-3.50;99.90
30572;DHT22;17348;50.948;10.696;2023-03-01T04:24:43;-3.50;99.90
30572;DHT22;17348;50.948;10.696;2023-03-01T04:27:46;-3.60;99.90
30572;DHT22;17348;50.948;10.696;2023-03-01T04:30:48;-3.70;99.90
30572;DHT22;17348;50.948;10.696;2023-03-01T04:33:53;-3.70;99.90
30572;DHT22;17348;50.948;10.696;2023-03-01T04:36:56;-3.70;99.90
30572;DHT22;17348;50.948;10.696;2023-03-01T04:39:58;-3.80;99.90
30572;DHT22;17348;50.948;10.696;2023-03-01T04:43:01;-3.80;99.90
30572;DHT22;17348;50.948;10.696;2023-03-01T04:46:05;-3.80;99.90
30572;DHT22;17348;50.948;10.696;2023-03-01T04:49:10;-3.90;99.90
30572;DHT22;17348;50.948;10.696;2023-03-01T04:52:12;-3.90;99.90
30572;DHT22;17348;50.948;10.696;2023-03-01T04:55:17;-3.90;99.90
30572;DHT22;17348;50.948;10.696;2023-03-01T04:58:20;-3.90;99.90
30572;DHT22;17348;50.948;10.696;2023-03-01T05:01:37;-4.00;99.90
30572;DHT22;17348;50.948;10.696;2023-03-01T05:04:41;-4.10;99.90
30572;DHT22;17348;50.948;10.696;2023-03-01T05:07:43;-4.10;99.90
30572;DHT22;17348;50.948;10.696;2023-03-01T05:10:48;-4.10;99.90
30572;DHT22;17348;50.948;10.696;2023-03-01T05:13:50;-4.10;99.90
30572;DHT22;17348;50.948;10.696;2023-03-01T05:16:55;-4.10;99.90
30572;DHT22;17348;50.948;10.696;2023-03-01T05:20:07;-4.20;99.90
30572;DHT22;17348;50.948;10.696;2023-03-01T05:23:11;-4.10;99.90
30572;DHT22;17348;50.948;10.696;2023-03-01T05:26:13;-4.20;99.90
30572;DHT22;17348;50.948;10.696;2023-03-01T05:29:16;-4.20;99.90
30572;DHT22;17348;50.948;10.696;2023-03-01T05:32:18;-4.20;99.90
30572;DHT22;17348;50.948;10.696;2023-03-01T05:35:22;-4.20;99.90
30572;DHT22;17348;50.948;10.696;2023-03-01T05:38:25;-4.20;99.90
30572;DHT22;17348;50.948;10.696;2023-03-01T05:41:27;-4.20;99.90
30572;DHT22;17348;50.948;10.696;2023-03-01T05:44:29;-4.30;99.90
30572;DHT22;17348;50.948;10.696;2023-03-01T05:47:32;-4.30;99.90
30572;DHT22;17348;50.948;10.696;2023-03-01T05:50:37;-4.30;99.90
30572;DHT22;17348;50.948;10.696;2023-03-01T05:53:40;-4.30;99.90
30572;DHT22;17348;50.948;10.696;2023-03-01T05:56:43;-4.30;99.90
30572;DHT22;17348;50.948;10.696;2023-03-01T05:59:45;-4.30;99.90
30572;DHT22;17348;50.948;10.696;2023-03-01T06:02:48;-4.40;99.90
30572;DHT22;17348;50.948;10.696;2023-03-01T06:05:55;-4.40;99.90
30572;DHT22;17348;50.948;10.696;2023-03-01T06:08:58;-4.40;99.90
30572;DHT22;17348;50.948;10.696;2023-03-01T06:12:00;-4.40;99.90
30572;DHT22;17348;50.948;10.696;2023-03-01T06:15:03;-4.30;99.90
30572;DHT22;17348;50.948;10.696;2023-03-01T06:18:06;-4.40;99.90
30572;DHT22;17348;50.948;10.696;2023-03-01T06:21:09;-4.30;99.90
30572;DHT22;17348;50.948;10.696;2023-03-01T06:24:12;-4.30;99.90
30572;DHT22;17348;50.948;10.696;2023-03-01T06:27:14;-4.20;99.90
30572;DHT22;17348;50.948;10.696;2023-03-01T06:30:18;-4.20;99.90
30572;DHT22;17348;50.948;10.696;2023-03-01T06:33:21;-4.10;99.90
30572;DHT22;17348;50.948;10.696;2023-03-01T06:36:26;-3.80;99.90
30572;DHT22;17348;50.948;10.696;2023-03-01T06:39:28;-2.70;99.90
30572;DHT22;17348;50.948;10.696;2023-03-01T06:42:31;-1.20;99.90
30572;DHT22;17348;50.948;10.696;2023-03-01T06:45:33;0.40;99.90
30572;DHT22;17348;50.948;10.696;2023-03-01T06:48:35;1.50;99.90
30572;DHT22;17348;50.948;10.696;2023-03-01T06:51:39;2.40;99.90
30572;DHT22;17348;50.948;10.696;2023-03-01T06:54:42;2.10;99.90
30572;DHT22;17348;50.948;10.696;2023-03-01T06:57:44;1.50;99.90
30572;DHT22;17348;50.948;10.696;2023-03-01T07:00:47;1.00;99.90
30572;DHT22;17348;50.948;10.696;2023-03-01T07:03:49;0.80;99.90
30572;DHT22;17348;50.948;10.696;2023-03-01T07:06:53;1.90;99.90
30572;DHT22;17348;50.948;10.696;2023-03-01T07:09:56;2.50;99.90
30572;DHT22;17348;50.948;10.696;2023-03-01T07:12:58;2.70;99.90
30572;DHT22;17348;50.948;10.696;2023-03-01T07:16:01;2.70;99.90
30572;DHT22;17348;50.948;10.696;2023-03-01T07:19:03;3.60;99.90
30572;DHT22;17348;50.948;10.696;2023-03-01T07:22:08;4.90;99.90
30572;DHT22;17348;50.948;10.696;2023-03-01T07:25:11;5.60;99.90
30572;DHT22;17348;50.948;10.696;2023-03-01T07:28:13;7.20;99.90
30572;DHT22;17348;50.948;10.696;2023-03-01T07:31:15;8.70;99.90
30572;DHT22;17348;50.948;10.696;2023-03-01T07:34:18;9.00;99.90
30572;DHT22;17348;50.948;10.696;2023-03-01T07:37:21;7.50;99.90
30572;DHT22;17348;50.948;10.696;2023-03-01T07:40:24;6.50;99.90
30572;DHT22;17348;50.948;10.696;2023-03-01T07:43:27;6.50;99.90
30572;DHT22;17348;50.948;10.696;2023-03-01T07:46:29;7.20;99.90
30572;DHT22;17348;50.948;10.696;2023-03-01T07:49:32;6.90;99.90
30572;DHT22;17348;50.948;10.696;2023-03-01T07:52:35;6.40;99.90
30572;DHT22;17348;50.948;10.696;2023-03-01T07:55:38;5.80;99.90
30572;DHT22;17348;50.948;10.696;2023-03-01T07:58:42;4.90;99.90
30572;DHT22;17348;50.948;10.696;2023-03-01T08:01:44;4.10;99.90
30572;DHT22;17348;50.948;10.696;2023-03-01T08:04:46;3.40;99.90
30572;DHT22;17348;50.948;10.696;2023-03-01T08:07:50;3.40;99.90
30572;DHT22;17348;50.948;10.696;2023-03-01T08:10:56;4.30;99.90
30572;DHT22;17348;50.948;10.696;2023-03-01T08:13:58;3.50;99.90
30572;DHT22;17348;50.948;10.696;2023-03-01T08:17:00;3.00;99.90
30572;DHT22;17348;50.948;10.696;2023-03-01T08:20:04;2.50;99.90
30572;DHT22;17348;50.948;10.696;2023-03-01T08:23:09;2.10;99.90
30572;DHT22;17348;50.948;10.696;2023-03-01T08:26:13;1.90;99.90
30572;DHT22;17348;50.948;10.696;2023-03-01T08:29:16;1.70;99.90
30572;DHT22;17348;50.948;10.696;2023-03-01T08:32:18;1.50;99.90
30572;DHT22;17348;50.948;10.696;2023-03-01T08:35:21;1.30;99.90
30572;DHT22;17348;50.948;10.696;2023-03-01T08:38:25;1.10;99.90
30572;DHT22;17348;50.948;10.696;2023-03-01T08:41:27;1.10;99.90
30572;DHT22;17348;50.948;10.696;2023-03-01T08:44:30;1.10;99.90
30572;DHT22;17348;50.948;10.696;2023-03-01T08:47:32;1.00;99.90
30572;DHT22;17348;50.948;10.696;2023-03-01T08:50:35;1.00;99.90
30572;DHT22;17348;50.948;10.696;2023-03-01T08:53:39;1.00;99.90
30572;DHT22;17348;50.948;10.696;2023-03-01T08:56:41;1.00;99.90
30572;DHT22;17348;50.948;10.696;2023-03-01T08:59:44;1.10;99.90
30572;DHT22;17348;50.948;10.696;2023-03-01T09:02:46;1.20;99.90
30572;DHT22;17348;50.948;10.696;2023-03-01T09:05:48;1.30;99.90
30572;DHT22;17348;50.948;10.696;2023-03-01T09:08:52;1.40;99.90
30572;DHT22;17348;50.948;10.696;2023-03-01T09:11:55;1.40;99.90
30572;DHT22;17348;50.948;10.696;2023-03-01T09:14:58;1.50;99.90
30572;DHT22;17348;50.948;10.696;2023-03-01T09:18:00;1.60;99.90
30572;DHT22;17348;50.948;10.696;2023-03-01T09:21:04;1.70;99.90
30572;DHT22;17348;50.948;10.696;2023-03-01T09:24:13;1.70;99.90
30572;DHT22;17348;50.948;10.696;2023-03-01T09:27:15;1.70;99.90
30572;DHT22;17348;50.948;10.696;2023-03-01T09:30:20;1.90;99.90
30572;DHT22;17348;50.948;10.696;2023-03-01T09:33:22;2.00;99.90
30572;DHT22;17348;50.948;10.696;2023-03-01T09:36:25;2.00;99.90
30572;DHT22;17348;50.948;10.696;2023-03-01T09:39:28;2.00;99.90
30572;DHT22;17348;50.948;10.696;2023-03-01T09:42:32;2.10;99.90
30572;DHT22;17348;50.948;10.696;2023-03-01T09:45:39;2.10;99.90
30572;DHT22;17348;50.948;10.696;2023-03-01T09:48:46;2.10;99.90
30572;DHT22;17348;50.948;10.696;2023-03-01T09:51:57;2.20;99.90
30572;DHT22;17348;50.948;10.696;2023-03-01T09:55:09;2.20;99.90
30572;DHT22;17348;50.948;10.696;2023-03-01T09:58:30;2.30;99.90
30572;DHT22;17348;50.948;10.696;2023-03-01T10:01:36;2.40;99.90
30572;DHT22;17348;50.948;10.696;2023-03-01T10:04:45;2.40;99.90
30572;DHT22;17348;50.948;10.696;2023-03-01T10:07:53;2.50;99.90
30572;DHT22;17348;50.948;10.696;2023-03-01T10:11:01;2.60;99.90
30572;DHT22;17348;50.948;10.696;2023-03-01T10:14:07;2.60;99.90
30572;DHT22;17348;50.948;10.696;2023-03-01T10:17:23;2.60;99.90
30572;DHT22;17348;50.948;10.696;2023-03-01T10:20:33;2.70;99.90
30572;DHT22;17348;50.948;10.696;2023-03-01T10:23:39;2.80;99.90
30572;DHT22;17348;50.948;10.696;2023-03-01T10:26:49;2.80;99.90
30572;DHT22;17348;50.948;10.696;2023-03-01T10:29:59;2.70;99.90
30572;DHT22;17348;50.948;10.696;2023-03-01T10:33:13;2.60;99.90
30572;DHT22;17348;50.948;10.696;2023-03-01T10:36:17;2.40;99.90
30572;DHT22;17348;50.948;10.696;2023-03-01T10:39:21;2.30;99.90
30572;DHT22;17348;50.948;10.696;2023-03-01T10:42:29;2.30;99.90
30572;DHT22;17348;50.948;10.696;2023-03-01T10:45:35;2.20;99.90
30572;DHT22;17348;50.948;10.696;2023-03-01T10:48:37;2.20;99.90
30572;DHT22;17348;50.948;10.696;2023-03-01T10:51:41;2.30;99.90
30572;DHT22;17348;50.948;10.696;2023-03-01T10:54:52;2.40;99.90
30572;DHT22;17348;50.948;10.696;2023-03-01T10:58:11;2.60;99.90
30572;DHT22;17348;50.948;10.696;2023-03-01T11:01:26;2.70;99.90
30572;DHT22;17348;50.948;10.696;2023-03-01T11:04:29;2.70;99.90
30572;DHT22;17348;50.948;10.696;2023-03-01T11:07:47;2.80;99.90
30572;DHT22;17348;50.948;10.696;2023-03-01T11:10:49;2.90;99.90
30572;DHT22;17348;50.948;10.696;2023-03-01T11:13:58;2.90;99.90
30572;DHT22;17348;50.948;10.696;2023-03-01T11:17:03;3.00;99.90
30572;DHT22;17348;50.948;10.696;2023-03-01T11:20:18;2.90;99.90
30572;DHT22;17348;50.948;10.696;2023-03-01T11:23:23;2.90;99.90
30572;DHT22;17348;50.948;10.696;2023-03-01T11:26:27;3.00;99.90
30572;DHT22;17348;50.948;10.696;2023-03-01T11:29:36;3.20;99.90
30572;DHT22;17348;50.948;10.696;2023-03-01T11:32:43;3.40;99.90
30572;DHT22;17348;50.948;10.696;2023-03-01T11:35:50;3.60;99.90
30572;DHT22;17348;50.948;10.696;2023-03-01T11:38:57;3.50;99.90
30572;DHT22;17348;50.948;10.696;2023-03-01T11:42:14;3.50;99.90
30572;DHT22;17348;50.948;10.696;2023-03-01T11:45:22;3.50;99.90
30572;DHT22;17348;50.948;10.696;2023-03-01T11:48:37;3.60;99.90
30572;DHT22;17348;50.948;10.696;2023-03-01T11:51:51;3.70;99.90
30572;DHT22;17348;50.948;10.696;2023-03-01T11:55:14;3.80;99.90
30572;DHT22;17348;50.948;10.696;2023-03-01T11:58:31;3.80;99.90
30572;DHT22;17348;50.948;10.696;2023-03-01T12:01:47;3.90;99.90
30572;DHT22;17348;50.948;10.696;2023-03-01T12:05:10;4.00;99.90
30572;DHT22;17348;50.948;10.696;2023-03-01T12:08:22;4.10;99.90
30572;DHT22;17348;50.948;10.696;2023-03-01T12:11:35;4.20;99.90
30572;DHT22;17348;50.948;10.696;2023-03-01T12:18:30;4.30;99.90
30572;DHT22;17348;50.948;10.696;2023-03-01T12:21:50;4.30;99.90
30572;DHT22;17348;50.948;10.696;2023-03-01T12:25:16;4.40;99.90
30572;DHT22;17348;50.948;10.696;2023-03-01T12:28:31;4.40;99.90
30572;DHT22;17348;50.948;10.696;2023-03-01T12:31:58;4.40;99.90
30572;DHT22;17348;50.948;10.696;2023-03-01T12:35:22;4.40;99.90
30572;DHT22;17348;50.948;10.696;2023-03-01T12:38:33;4.40;99.90
30572;DHT22;17348;50.948;10.696;2023-03-01T12:41:47;4.40;99.90
30572;DHT22;17348;50.948;10.696;2023-03-01T12:45:24;4.40;99.90
30572;DHT22;17348;50.948;10.696;2023-03-01T12:48:40;4.50;99.90
30572;DHT22;17348;50.948;10.696;2023-03-01T12:51:51;4.50;99.90
30572;DHT22;17348;50.948;10.696;2023-03-01T12:54:57;4.50;99.90
30572;DHT22;17348;50.948;10.696;2023-03-01T12:58:13;4.60;99.90
30572;DHT22;17348;50.948;10.696;2023-03-01T13:01:31;4.50;99.90
30572;DHT22;17348;50.948;10.696;2023-03-01T13:04:54;4.50;99.90
30572;DHT22;17348;50.948;10.696;2023-03-01T13:08:07;4.60;99.90
30572;DHT22;17348;50.948;10.696;2023-03-01T13:11:17;4.60;99.90
30572;DHT22;17348;50.948;10.696;2023-03-01T13:14:37;4.70;99.90
30572;DHT22;17348;50.948;10.696;2023-03-01T13:17:46;4.70;99.90
30572;DHT22;17348;50.948;10.696;2023-03-01T13:20:50;4.70;99.90
30572;DHT22;17348;50.948;10.696;2023-03-01T13:23:54;4.80;99.90
30572;DHT22;17348;50.948;10.696;2023-03-01T13:27:10;4.90;99.90
30572;DHT22;17348;50.948;10.696;2023-03-01T13:30:40;4.90;99.90
30572;DHT22;17348;50.948;10.696;2023-03-01T13:33:45;4.90;99.90
30572;DHT22;17348;50.948;10.696;2023-03-01T13:36:49;5.00;99.90
30572;DHT22;17348;50.948;10.696;2023-03-01T13:39:53;5.00;99.90
30572;DHT22;17348;50.948;10.696;2023-03-01T13:42:55;4.90;99.90
30572;DHT22;17348;50.948;10.696;2023-03-01T13:45:58;5.00;99.90
30572;DHT22;17348;50.948;10.696;2023-03-01T13:49:01;5.00;99.90
30572;DHT22;17348;50.948;10.696;2023-03-01T13:52:05;5.00;99.90
30572;DHT22;17348;50.948;10.696;2023-03-01T13:55:18;5.10;99.90
30572;DHT22;17348;50.948;10.696;2023-03-01T13:58:24;5.00;99.90
30572;DHT22;17348;50.948;10.696;2023-03-01T14:01:32;5.00;99.90
30572;DHT22;17348;50.948;10.696;2023-03-01T14:04:35;4.90;99.90
30572;DHT22;17348;50.948;10.696;2023-03-01T14:07:38;4.90;99.90
30572;DHT22;17348;50.948;10.696;2023-03-01T14:14:36;5.10;99.90
30572;DHT22;17348;50.948;10.696;2023-03-01T14:17:52;5.10;99.90
30572;DHT22;17348;50.948;10.696;2023-03-01T14:20:57;5.10;99.90
30572;DHT22;17348;50.948;10.696;2023-03-01T14:24:00;5.10;99.90
30572;DHT22;17348;50.948;10.696;2023-03-01T14:27:04;5.10;99.90
30572;DHT22;17348;50.948;10.696;2023-03-01T14:30:17;5.10;99.90
30572;DHT22;17348;50.948;10.696;2023-03-01T14:33:24;5.10;99.90
30572;DHT22;17348;50.948;10.696;2023-03-01T14:36:27;5.10;99.90
30572;DHT22;17348;50.948;10.696;2023-03-01T14:39:32;5.10;99.90
30572;DHT22;17348;50.948;10.696;2023-03-01T14:42:36;5.20;99.90
30572;DHT22;17348;50.948;10.696;2023-03-01T14:45:38;5.10;99.90
30572;DHT22;17348;50.948;10.696;2023-03-01T14:48:41;5.10;99.90
30572;DHT22;17348;50.948;10.696;2023-03-01T14:51:50;5.10;99.90
30572;DHT22;17348;50.948;10.696;2023-03-01T14:54:54;5.10;99.90
30572;DHT22;17348;50.948;10.696;2023-03-01T14:57:58;5.20;99.90
30572;DHT22;17348;50.948;10.696;2023-03-01T15:01:03;5.20;99.90
30572;DHT22;17348;50.948;10.696;2023-03-01T15:04:07;5.20;99.90
30572;DHT22;17348;50.948;10.696;2023-03-01T15:07:13;5.20;99.90
30572;DHT22;17348;50.948;10.696;2023-03-01T15:10:20;5.20;99.90
30572;DHT22;17348;50.948;10.696;2023-03-01T15:13:25;5.10;99.90
30572;DHT22;17348;50.948;10.696;2023-03-01T15:16:30;5.00;99.90
30572;DHT22;17348;50.948;10.696;2023-03-01T15:19:33;5.00;99.90
30572;DHT22;17348;50.948;10.696;2023-03-01T15:22:36;5.00;99.90
30572;DHT22;17348;50.948;10.696;2023-03-01T15:25:44;5.00;99.90
30572;DHT22;17348;50.948;10.696;2023-03-01T15:28:52;5.00;99.90
30572;DHT22;17348;50.948;10.696;2023-03-01T15:31:58;5.00;99.90
30572;DHT22;17348;50.948;10.696;2023-03-01T15:35:34;5.00;99.90
30572;DHT22;17348;50.948;10.696;2023-03-01T15:38:52;5.00;99.90
30572;DHT22;17348;50.948;10.696;2023-03-01T15:41:55;5.00;99.90
30572;DHT22;17348;50.948;10.696;2023-03-01T15:45:09;5.00;99.90
30572;DHT22;17348;50.948;10.696;2023-03-01T15:48:17;4.90;99.90
30572;DHT22;17348;50.948;10.696;2023-03-01T15:51:27;4.90;99.90
30572;DHT22;17348;50.948;10.696;2023-03-01T15:54:30;4.80;99.90
30572;DHT22;17348;50.948;10.696;2023-03-01T15:57:33;4.80;99.90
30572;DHT22;17348;50.948;10.696;2023-03-01T16:00:37;4.80;99.90
30572;DHT22;17348;50.948;10.696;2023-03-01T16:03:40;4.70;99.90
30572;DHT22;17348;50.948;10.696;2023-03-01T16:06:42;4.70;99.90
30572;DHT22;17348;50.948;10.696;2023-03-01T16:09:45;4.60;99.90
30572;DHT22;17348;50.948;10.696;2023-03-01T16:12:47;4.60;99.90
30572;DHT22;17348;50.948;10.696;2023-03-01T16:15:52;4.50;99.90
30572;DHT22;17348;50.948;10.696;2023-03-01T16:18:54;4.50;99.90
30572;DHT22;17348;50.948;10.696;2023-03-01T16:21:56;4.40;99.90
30572;DHT22;17348;50.948;10.696;2023-03-01T16:24:59;4.40;99.90
30572;DHT22;17348;50.948;10.696;2023-03-01T16:28:04;4.30;99.90
30572;DHT22;17348;50.948;10.696;2023-03-01T16:31:11;4.30;99.90
30572;DHT22;17348;50.948;10.696;2023-03-01T16:34:15;4.20;99.90
30572;DHT22;17348;50.948;10.696;2023-03-01T16:37:17;4.10;99.90
30572;DHT22;17348;50.948;10.696;2023-03-01T16:40:23;4.00;99.90
30572;DHT22;17348;50.948;10.696;2023-03-01T16:43:26;4.00;99.90
30572;DHT22;17348;50.948;10.696;2023-03-01T16:46:30;3.90;99.90
30572;DHT22;17348;50.948;10.696;2023-03-01T16:49:33;3.80;99.90
30572;DHT22;17348;50.948;10.696;2023-03-01T16:52:35;3.70;99.90
30572;DHT22;17348;50.948;10.696;2023-03-01T16:55:38;3.60;99.90
30572;DHT22;17348;50.948;10.696;2023-03-01T16:58:46;3.50;99.90
30572;DHT22;17348;50.948;10.696;2023-03-01T17:01:50;3.40;99.90
30572;DHT22;17348;50.948;10.696;2023-03-01T17:04:53;3.30;99.90
30572;DHT22;17348;50.948;10.696;2023-03-01T17:07:56;3.30;99.90
30572;DHT22;17348;50.948;10.696;2023-03-01T17:11:05;3.20;99.90
30572;DHT22;17348;50.948;10.696;2023-03-01T17:14:08;3.10;99.90
30572;DHT22;17348;50.948;10.696;2023-03-01T17:17:13;3.10;99.90
30572;DHT22;17348;50.948;10.696;2023-03-01T17:20:19;3.00;99.90
30572;DHT22;17348;50.948;10.696;2023-03-01T17:23:21;3.00;99.90
30572;DHT22;17348;50.948;10.696;2023-03-01T17:26:24;2.90;99.90
30572;DHT22;17348;50.948;10.696;2023-03-01T17:29:26;2.80;99.90
30572;DHT22;17348;50.948;10.696;2023-03-01T17:32:30;2.80;99.90
30572;DHT22;17348;50.948;10.696;2023-03-01T17:35:32;2.70;99.90
30572;DHT22;17348;50.948;10.696;2023-03-01T17:38:37;2.70;99.90
30572;DHT22;17348;50.948;10.696;2023-03-01T17:41:40;2.60;99.90
30572;DHT22;17348;50.948;10.696;2023-03-01T17:44:42;2.60;99.90
30572;DHT22;17348;50.948;10.696;2023-03-01T17:47:46;2.50;99.90
30572;DHT22;17348;50.948;10.696;2023-03-01T17:50:48;2.50;99.90
30572;DHT22;17348;50.948;10.696;2023-03-01T17:53:51;2.40;99.90
30572;DHT22;17348;50.948;10.696;2023-03-01T17:56:53;2.40;99.90
30572;DHT22;17348;50.948;10.696;2023-03-01T17:59:58;2.30;99.90
30572;DHT22;17348;50.948;10.696;2023-03-01T18:03:03;2.30;99.90
30572;DHT22;17348;50.948;10.696;2023-03-01T18:06:11;2.20;99.90
30572;DHT22;17348;50.948;10.696;2023-03-01T18:09:13;2.10;99.90
30572;DHT22;17348;50.948;10.696;2023-03-01T18:12:16;2.10;99.90
30572;DHT22;17348;50.948;10.696;2023-03-01T18:15:18;2.10;99.90
30572;DHT22;17348;50.948;10.696;2023-03-01T18:18:22;2.00;99.90
30572;DHT22;17348;50.948;10.696;2023-03-01T18:21:25;2.00;99.90
30572;DHT22;17348;50.948;10.696;2023-03-01T18:24:27;1.90;99.90
30572;DHT22;17348;50.948;10.696;2023-03-01T18:27:30;1.90;99.90
30572;DHT22;17348;50.948;10.696;2023-03-01T18:30:32;1.80;99.90
30572;DHT22;17348;50.948;10.696;2023-03-01T18:33:36;1.80;99.90
30572;DHT22;17348;50.948;10.696;2023-03-01T18:36:39;1.80;99.90
30572;DHT22;17348;50.948;10.696;2023-03-01T18:39:41;1.80;99.90
30572;DHT22;17348;50.948;10.696;2023-03-01T18:42:44;1.80;99.90
30572;DHT22;17348;50.948;10.696;2023-03-01T18:45:46;1.80;99.90
30572;DHT22;17348;50.948;10.696;2023-03-01T18:48:53;1.80;99.90
30572;DHT22;17348;50.948;10.696;2023-03-01T18:51:55;1.70;99.90
30572;DHT22;17348;50.948;10.696;2023-03-01T18:54:57;1.70;99.90
30572;DHT22;17348;50.948;10.696;2023-03-01T18:58:00;1.70;99.90
30572;DHT22;17348;50.948;10.696;2023-03-01T19:01:02;1.80;99.90
30572;DHT22;17348;50.948;10.696;2023-03-01T19:04:10;1.70;99.90
30572;DHT22;17348;50.948;10.696;2023-03-01T19:07:12;1.70;99.90
30572;DHT22;17348;50.948;10.696;2023-03-01T19:10:15;1.70;99.90
30572;DHT22;17348;50.948;10.696;2023-03-01T19:13:17;1.70;99.90
30572;DHT22;17348;50.948;10.696;2023-03-01T19:16:22;1.70;99.90
30572;DHT22;17348;50.948;10.696;2023-03-01T19:19:28;1.60;99.90
30572;DHT22;17348;50.948;10.696;2023-03-01T19:22:31;1.50;99.90
30572;DHT22;17348;50.948;10.696;2023-03-01T19:25:33;1.50;99.90
30572;DHT22;17348;50.948;10.696;2023-03-01T19:28:38;1.40;99.90
30572;DHT22;17348;50.948;10.696;2023-03-01T19:31:40;1.40;99.90